createdAt,value
2018-07-02T00:00:11.082Z,27.62
2018-07-02T00:01:11.061Z,27.59
2018-07-02T00:02:11.071Z,27.58
2018-07-02T00:03:11.057Z,27.63
2018-07-02T00:04:11.033Z,27.58
2018-07-02T00:05:11.031Z,27.52
2018-07-02T00:06:11.149Z,27.53
2018-07-02T00:07:11.005Z,27.58
2018-07-02T00:08:10.998Z,27.58
2018-07-02T00:09:10.991Z,27.58
2018-07-02T00:10:10.984Z,27.58
2018-07-02T00:11:10.961Z,27.58
2018-07-02T00:12:11.062Z,27.55
2018-07-02T00:13:10.946Z,27.55
2018-07-02T00:14:11.002Z,27.55
2018-07-02T00:15:10.937Z,27.63
2018-07-02T00:16:10.911Z,27.58
2018-07-02T00:17:11.025Z,27.49
2018-07-02T00:18:10.921Z,27.52
2018-07-02T00:19:10.970Z,27.43
2018-07-02T00:20:10.872Z,27.45
2018-07-02T00:21:10.861Z,27.48
2018-07-02T00:22:10.848Z,27.48
2018-07-02T00:23:10.951Z,27.42
2018-07-02T00:24:10.842Z,27.46
2018-07-02T00:25:10.810Z,27.53
2018-07-02T00:26:10.796Z,27.48
2018-07-02T00:27:10.800Z,27.40
2018-07-02T00:28:10.787Z,27.52
2018-07-02T00:29:10.778Z,27.52
2018-07-02T00:30:10.912Z,27.38
2018-07-02T00:31:10.849Z,27.45
2018-07-02T00:32:10.733Z,27.43
2018-07-02T00:33:10.831Z,27.43
2018-07-02T00:34:10.827Z,27.40
2018-07-02T00:35:10.846Z,27.45
2018-07-02T00:36:10.703Z,27.52
2018-07-02T00:37:10.696Z,27.38
2018-07-02T00:38:10.796Z,27.40
2018-07-02T00:39:10.674Z,27.40
2018-07-02T00:40:10.661Z,27.35
2018-07-02T00:41:10.652Z,27.39
2018-07-02T00:42:10.639Z,27.39
2018-07-02T00:43:10.630Z,27.39
2018-07-02T00:44:10.725Z,27.39
2018-07-02T00:45:10.707Z,27.43
2018-07-02T00:46:10.605Z,27.34
2018-07-02T00:47:10.576Z,27.35
2018-07-02T00:48:10.685Z,27.45
2018-07-02T00:49:10.683Z,27.34
2018-07-02T00:50:10.659Z,27.34
2018-07-02T00:51:10.538Z,27.34
2018-07-02T00:52:10.557Z,27.34
2018-07-02T00:53:10.639Z,27.31
2018-07-02T00:54:10.615Z,27.38
2018-07-02T00:55:10.503Z,27.42
2018-07-02T00:56:10.497Z,27.35
2018-07-02T00:57:10.593Z,27.33
2018-07-02T00:58:10.478Z,27.34
2018-07-02T00:59:10.468Z,27.28
2018-07-02T01:00:10.557Z,27.34
2018-07-02T01:01:10.434Z,27.35
2018-07-02T01:02:10.525Z,27.34
2018-07-02T01:03:10.425Z,27.31
2018-07-02T01:04:10.534Z,27.30
2018-07-02T01:05:10.409Z,27.28
2018-07-02T01:06:10.382Z,27.34
2018-07-02T01:07:10.364Z,27.34
2018-07-02T01:08:10.481Z,27.28
2018-07-02T01:09:10.587Z,27.34
2018-07-02T01:10:10.351Z,27.27
2018-07-02T01:11:10.357Z,27.31
2018-07-02T01:12:10.328Z,27.30
2018-07-02T01:13:10.427Z,27.25
2018-07-02T01:14:10.297Z,27.30
2018-07-02T01:15:10.281Z,27.25
2018-07-02T01:16:10.283Z,27.28
2018-07-02T01:17:10.347Z,27.28
2018-07-02T01:18:10.388Z,27.27
2018-07-02T01:19:10.263Z,27.23
2018-07-02T01:20:10.229Z,27.24
2018-07-02T01:21:10.375Z,27.25
2018-07-02T01:22:10.241Z,27.24
2018-07-02T01:23:10.195Z,27.25
2018-07-02T01:24:10.278Z,27.25
2018-07-02T01:25:10.296Z,27.23
2018-07-02T01:26:10.246Z,27.23
2018-07-02T01:27:10.155Z,27.23
2018-07-02T01:28:10.259Z,27.20
2018-07-02T01:29:10.148Z,27.20
2018-07-02T01:30:10.125Z,27.25
2018-07-02T01:31:10.137Z,27.18
2018-07-02T01:32:10.103Z,27.20
2018-07-02T01:33:10.230Z,27.15
2018-07-02T01:34:10.104Z,27.20
2018-07-02T01:35:10.203Z,27.18
2018-07-02T01:36:10.180Z,27.18
2018-07-02T01:37:10.066Z,27.08
2018-07-02T01:38:10.047Z,27.13
2018-07-02T01:39:10.140Z,27.11
2018-07-02T01:40:10.050Z,27.09
2018-07-02T01:41:10.014Z,27.08
2018-07-02T01:42:09.999Z,27.11
2018-07-02T01:43:10.007Z,27.15
2018-07-02T01:44:09.996Z,27.08
2018-07-02T01:45:10.008Z,27.16
2018-07-02T01:46:09.976Z,27.18
2018-07-02T01:47:10.069Z,27.13
2018-07-02T01:48:10.046Z,27.15
2018-07-02T01:49:09.939Z,27.16
2018-07-02T01:50:09.918Z,27.18
2018-07-02T01:51:09.911Z,27.15
2018-07-02T01:52:10.007Z,27.15
2018-07-02T01:53:09.999Z,27.13
2018-07-02T01:54:09.977Z,27.13
2018-07-02T01:55:09.986Z,27.16
2018-07-02T01:56:09.965Z,27.15
2018-07-02T01:57:09.943Z,27.15
2018-07-02T01:58:09.864Z,27.03
2018-07-02T01:59:09.832Z,27.09
2018-07-02T02:00:09.824Z,27.11
2018-07-02T02:01:09.904Z,27.16
2018-07-02T02:02:09.792Z,27.09
2018-07-02T02:03:09.891Z,27.13
2018-07-02T02:04:09.893Z,27.12
2018-07-02T02:05:09.764Z,27.13
2018-07-02T02:06:09.753Z,27.13
2018-07-02T02:07:09.776Z,27.12
2018-07-02T02:08:09.878Z,27.03
2018-07-02T02:09:09.736Z,27.02
2018-07-02T02:10:09.717Z,27.06
2018-07-02T02:11:10.653Z,27.13
2018-07-02T02:12:09.690Z,27.09
2018-07-02T02:13:09.778Z,27.02
2018-07-02T02:14:09.681Z,26.98
2018-07-02T02:15:09.798Z,27.01
2018-07-02T02:16:09.757Z,27.05
2018-07-02T02:17:09.635Z,26.97
2018-07-02T02:18:09.754Z,27.02
2018-07-02T02:19:09.642Z,27.02
2018-07-02T02:20:09.610Z,27.06
2018-07-02T02:21:09.704Z,27.02
2018-07-02T02:22:09.586Z,27.01
2018-07-02T02:23:09.698Z,27.01
2018-07-02T02:24:09.682Z,27.03
2018-07-02T02:25:09.569Z,27.02
2018-07-02T02:26:09.555Z,27.08
2018-07-02T02:27:09.534Z,27.02
2018-07-02T02:28:09.613Z,27.05
2018-07-02T02:29:09.539Z,27.08
2018-07-02T02:30:09.526Z,27.03
2018-07-02T02:31:09.515Z,27.01
2018-07-02T02:32:09.489Z,27.02
2018-07-02T02:33:09.469Z,27.05
2018-07-02T02:34:09.470Z,26.94
2018-07-02T02:35:09.464Z,26.96
2018-07-02T02:36:09.445Z,27.01
2018-07-02T02:37:09.440Z,27.01
2018-07-02T02:38:09.421Z,26.94
2018-07-02T02:39:09.421Z,26.94
2018-07-02T02:40:09.512Z,26.96
2018-07-02T02:41:09.512Z,26.98
2018-07-02T02:42:09.486Z,26.93
2018-07-02T02:43:09.374Z,26.96
2018-07-02T02:44:09.368Z,27.01
2018-07-02T02:45:09.441Z,26.93
2018-07-02T02:46:09.348Z,26.93
2018-07-02T02:47:09.436Z,26.88
2018-07-02T02:48:09.339Z,26.93
2018-07-02T02:49:09.327Z,26.96
2018-07-02T02:50:09.413Z,26.93
2018-07-02T02:51:09.290Z,26.91
2018-07-02T02:52:09.415Z,26.91
2018-07-02T02:53:09.258Z,26.88
2018-07-02T02:54:09.268Z,26.94
2018-07-02T02:55:09.356Z,26.84
2018-07-02T02:56:09.228Z,26.90
2018-07-02T02:57:09.229Z,26.88
2018-07-02T02:58:09.345Z,26.78
2018-07-02T02:59:09.197Z,26.86
2018-07-02T03:00:09.300Z,26.88
2018-07-02T03:01:09.172Z,26.83
2018-07-02T03:02:09.162Z,26.79
2018-07-02T03:03:09.175Z,26.86
2018-07-02T03:04:09.154Z,26.83
2018-07-02T03:05:09.159Z,26.84
2018-07-02T03:06:09.136Z,26.87
2018-07-02T03:07:09.136Z,26.83
2018-07-02T03:08:09.188Z,26.78
2018-07-02T03:09:09.192Z,26.87
2018-07-02T03:10:09.204Z,26.79
2018-07-02T03:11:09.098Z,26.71
2018-07-02T03:12:09.219Z,26.79
2018-07-02T03:13:09.063Z,26.87
2018-07-02T03:14:09.036Z,26.87
2018-07-02T03:15:09.057Z,26.84
2018-07-02T03:16:09.034Z,26.81
2018-07-02T03:17:09.002Z,26.78
2018-07-02T03:18:08.994Z,26.81
2018-07-02T03:19:09.011Z,26.68
2018-07-02T03:20:09.099Z,26.73
2018-07-02T03:21:09.080Z,26.73
2018-07-02T03:22:08.966Z,26.72
2018-07-02T03:23:08.947Z,26.71
2018-07-02T03:24:09.030Z,26.83
2018-07-02T03:25:08.931Z,26.69
2018-07-02T03:26:08.928Z,26.73
2018-07-02T03:27:08.915Z,26.72
2018-07-02T03:28:08.890Z,26.79
2018-07-02T03:29:08.895Z,26.73
2018-07-02T03:30:08.920Z,26.71
2018-07-02T03:31:08.863Z,26.71
2018-07-02T03:32:08.965Z,26.75
2018-07-02T03:33:08.972Z,26.72
2018-07-02T03:34:08.944Z,26.73
2018-07-02T03:35:08.834Z,26.68
2018-07-02T03:36:08.888Z,26.68
2018-07-02T03:37:08.794Z,26.76
2018-07-02T03:38:08.802Z,26.72
2018-07-02T03:39:08.880Z,26.66
2018-07-02T03:40:08.791Z,26.73
2018-07-02T03:41:08.778Z,26.69
2018-07-02T03:42:08.746Z,26.64
2018-07-02T03:43:09.632Z,26.65
2018-07-02T03:44:08.730Z,26.64
2018-07-02T03:45:08.720Z,26.68
2018-07-02T03:46:08.708Z,26.66
2018-07-02T03:47:08.708Z,26.68
2018-07-02T03:48:08.698Z,26.68
2018-07-02T03:49:08.679Z,26.64
2018-07-02T03:50:08.677Z,26.59
2018-07-02T03:51:08.649Z,26.64
2018-07-02T03:52:08.786Z,26.54
2018-07-02T03:53:08.649Z,26.61
2018-07-02T03:54:08.628Z,26.64
2018-07-02T03:55:08.630Z,26.56
2018-07-02T03:56:08.740Z,26.57
2018-07-02T03:57:08.624Z,26.61
2018-07-02T03:58:08.599Z,26.65
2018-07-02T03:59:08.597Z,26.64
2018-07-02T04:00:08.567Z,26.60
2018-07-02T04:01:08.665Z,26.51
2018-07-02T04:02:08.665Z,26.59
2018-07-02T04:03:08.526Z,26.54
2018-07-02T04:04:08.638Z,26.60
2018-07-02T04:05:08.529Z,26.57
2018-07-02T04:06:08.498Z,26.44
2018-07-02T04:07:08.589Z,26.59
2018-07-02T04:08:08.599Z,26.54
2018-07-02T04:09:08.465Z,26.59
2018-07-02T04:10:08.470Z,26.50
2018-07-02T04:11:08.457Z,26.54
2018-07-02T04:12:08.488Z,26.47
2018-07-02T04:13:08.443Z,26.51
2018-07-02T04:14:08.421Z,26.56
2018-07-02T04:15:08.412Z,26.50
2018-07-02T04:16:08.525Z,26.57
2018-07-02T04:17:08.534Z,26.56
2018-07-02T04:18:08.377Z,26.49
2018-07-02T04:19:08.361Z,26.53
2018-07-02T04:20:08.361Z,26.50
2018-07-02T04:21:08.342Z,26.50
2018-07-02T04:22:08.424Z,26.56
2018-07-02T04:23:08.309Z,26.46
2018-07-02T04:24:08.416Z,26.53
2018-07-02T04:25:08.315Z,26.53
2018-07-02T04:26:08.298Z,26.49
2018-07-02T04:27:08.285Z,26.54
2018-07-02T04:28:08.260Z,26.47
2018-07-02T04:29:08.249Z,26.53
2018-07-02T04:30:08.380Z,26.53
2018-07-02T04:31:08.341Z,26.47
2018-07-02T04:32:08.232Z,26.56
2018-07-02T04:33:08.222Z,26.49
2018-07-02T04:34:08.213Z,26.57
2018-07-02T04:35:08.197Z,26.41
2018-07-02T04:36:08.326Z,26.36
2018-07-02T04:37:08.179Z,26.50
2018-07-02T04:38:08.154Z,26.47
2018-07-02T04:39:08.156Z,26.44
2018-07-02T04:40:08.270Z,26.50
2018-07-02T04:41:08.136Z,26.44
2018-07-02T04:42:08.208Z,26.42
2018-07-02T04:43:08.130Z,26.49
2018-07-02T04:44:08.092Z,26.46
2018-07-02T04:45:08.364Z,26.47
2018-07-02T04:46:08.085Z,26.47
2018-07-02T04:47:08.063Z,26.42
2018-07-02T04:48:08.164Z,26.41
2018-07-02T04:49:08.034Z,26.50
2018-07-02T04:50:08.029Z,26.46
2018-07-02T04:51:08.042Z,26.41
2018-07-02T04:52:08.016Z,26.47
2018-07-02T04:53:08.128Z,26.49
2018-07-02T04:54:08.097Z,26.44
2018-07-02T04:55:07.981Z,26.49
2018-07-02T04:56:07.979Z,26.49
2018-07-02T04:57:07.953Z,26.46
2018-07-02T04:58:08.065Z,26.44
2018-07-02T04:59:07.943Z,26.49
2018-07-02T05:00:08.068Z,26.46
2018-07-02T05:01:07.987Z,26.49
2018-07-02T05:02:07.899Z,26.41
2018-07-02T05:03:07.902Z,26.42
2018-07-02T05:04:07.890Z,26.44
2018-07-02T05:05:07.886Z,26.46
2018-07-02T05:06:07.876Z,26.44
2018-07-02T05:07:07.856Z,26.39
2018-07-02T05:08:07.836Z,26.42
2018-07-02T05:09:07.939Z,26.42
2018-07-02T05:10:07.828Z,26.41
2018-07-02T05:11:07.894Z,26.36
2018-07-02T05:12:07.807Z,26.34
2018-07-02T05:13:07.912Z,26.39
2018-07-02T05:14:07.773Z,26.35
2018-07-02T05:15:07.907Z,26.35
2018-07-02T05:16:07.877Z,26.46
2018-07-02T05:17:07.760Z,26.39
2018-07-02T05:18:07.745Z,26.44
2018-07-02T05:19:07.796Z,26.44
2018-07-02T05:20:07.821Z,26.42
2018-07-02T05:21:07.960Z,26.38
2018-07-02T05:22:07.702Z,26.39
2018-07-02T05:23:07.698Z,26.46
2018-07-02T05:24:07.725Z,26.39
2018-07-02T05:25:07.659Z,26.44
2018-07-02T05:26:07.661Z,26.38
2018-07-02T05:27:07.658Z,26.39
2018-07-02T05:28:07.764Z,26.38
2018-07-02T05:29:07.828Z,26.36
2018-07-02T05:31:17.967Z,26.35
2018-07-02T05:33:29.727Z,26.34
2018-07-02T05:34:30.790Z,26.39
2018-07-02T05:35:30.717Z,26.36
2018-07-02T05:36:30.824Z,26.36
2018-07-02T05:37:30.830Z,26.41
2018-07-02T05:38:30.654Z,26.35
2018-07-02T05:39:30.646Z,26.39
2018-07-02T05:40:30.698Z,26.42
2018-07-02T05:41:30.634Z,26.39
2018-07-02T05:42:30.597Z,26.39
2018-07-02T05:43:30.724Z,26.34
2018-07-02T05:44:30.586Z,26.38
2018-07-02T05:45:32.301Z,26.38
2018-07-02T05:46:30.695Z,26.34
2018-07-02T05:47:30.561Z,26.32
2018-07-02T05:48:30.572Z,26.36
2018-07-02T05:49:30.741Z,26.34
2018-07-02T05:50:29.572Z,26.34
2018-07-02T05:52:47.369Z,26.36
2018-07-02T05:53:48.137Z,26.28
2018-07-02T05:54:48.113Z,26.32
2018-07-02T05:55:47.109Z,26.35
2018-07-02T05:56:48.250Z,26.35
2018-07-02T05:57:48.587Z,26.36
2018-07-02T05:58:48.067Z,26.34
2018-07-02T05:59:47.222Z,26.29
2018-07-02T06:00:48.146Z,26.31
2018-07-02T06:01:48.144Z,26.39
2018-07-02T06:02:47.125Z,26.29
2018-07-02T06:03:48.449Z,26.31
2018-07-02T06:04:48.012Z,26.34
2018-07-02T06:05:48.001Z,26.31
2018-07-02T06:06:48.009Z,26.36
2018-07-02T06:07:48.077Z,26.32
2018-07-02T06:08:47.999Z,26.27
2018-07-02T06:09:47.952Z,26.24
2018-07-02T06:10:48.062Z,26.21
2018-07-02T06:11:47.921Z,26.32
2018-07-02T06:12:48.056Z,26.31
2018-07-02T06:13:47.918Z,26.20
2018-07-02T06:14:47.926Z,26.21
2018-07-02T06:15:47.937Z,26.27
2018-07-02T06:16:47.962Z,26.17
2018-07-02T06:17:47.958Z,26.21
2018-07-02T06:18:47.880Z,26.17
2018-07-02T06:19:48.000Z,26.27
2018-07-02T06:20:47.849Z,26.17
2018-07-02T06:21:47.845Z,26.20
2018-07-02T06:22:47.825Z,26.20
2018-07-02T06:23:47.811Z,26.20
2018-07-02T06:24:47.830Z,26.20
2018-07-02T06:25:48.020Z,26.23
2018-07-02T06:26:46.790Z,26.23
2018-07-02T06:27:47.779Z,26.16
2018-07-02T06:28:46.767Z,26.17
2018-07-02T06:29:47.765Z,26.11
2018-07-02T06:30:47.727Z,26.13
2018-07-02T06:31:47.896Z,26.06
2018-07-02T06:32:47.810Z,26.08
2018-07-02T06:33:47.820Z,26.06
2018-07-02T06:34:47.709Z,26.04
2018-07-02T06:35:47.684Z,26.11
2018-07-02T06:36:47.676Z,26.04
2018-07-02T06:37:48.226Z,26.12
2018-07-02T06:38:47.653Z,26.03
2018-07-02T06:39:47.651Z,26.00
2018-07-02T06:40:47.691Z,26.03
2018-07-02T06:41:46.639Z,26.03
2018-07-02T06:42:47.613Z,25.98
2018-07-02T06:43:47.736Z,25.96
2018-07-02T06:44:47.712Z,25.97
2018-07-02T06:45:47.716Z,25.98
2018-07-02T06:46:47.603Z,25.85
2018-07-02T06:47:47.550Z,25.94
2018-07-02T06:48:47.645Z,25.90
2018-07-02T06:49:47.561Z,25.93
2018-07-02T06:50:47.696Z,25.83
2018-07-02T06:51:47.893Z,25.76
2018-07-02T06:52:47.618Z,25.86
2018-07-02T06:53:47.628Z,25.96
2018-07-02T06:54:47.507Z,25.82
2018-07-02T06:55:47.509Z,25.86
2018-07-02T06:56:47.486Z,26.00
2018-07-02T06:57:47.447Z,25.94
2018-07-02T06:58:47.485Z,25.81
2018-07-02T06:59:47.457Z,25.90
2018-07-02T07:00:47.929Z,25.96
2018-07-02T07:01:47.421Z,25.94
2018-07-02T07:02:47.425Z,25.85
2018-07-02T07:03:47.500Z,25.83
2018-07-02T07:04:47.794Z,25.98
2018-07-02T07:05:46.520Z,25.81
2018-07-02T07:06:47.382Z,25.86
2018-07-02T07:07:48.105Z,25.89
2018-07-02T07:08:47.487Z,25.81
2018-07-02T07:09:47.458Z,25.86
2018-07-02T07:10:47.333Z,25.76
2018-07-02T07:11:47.444Z,25.86
2018-07-02T07:12:47.467Z,25.85
2018-07-02T07:13:47.451Z,25.81
2018-07-02T07:14:47.312Z,25.89
2018-07-02T07:15:47.307Z,25.85
2018-07-02T07:16:47.355Z,25.86
2018-07-02T07:17:47.281Z,25.89
2018-07-02T07:18:47.476Z,25.82
2018-07-02T07:19:46.379Z,25.85
2018-07-02T07:20:47.229Z,25.83
2018-07-02T07:21:47.395Z,25.85
2018-07-02T07:22:47.352Z,25.79
2018-07-02T07:23:47.221Z,25.89
2018-07-02T07:24:47.325Z,25.82
2018-07-02T07:25:47.298Z,25.90
2018-07-02T07:26:47.161Z,25.86
2018-07-02T07:27:47.166Z,25.81
2018-07-02T07:28:49.104Z,25.86
2018-07-02T07:29:47.166Z,25.75
2018-07-02T07:30:47.145Z,25.71
2018-07-02T07:31:47.112Z,25.76
2018-07-02T07:32:47.259Z,25.83
2018-07-02T07:33:48.234Z,25.83
2018-07-02T07:34:47.131Z,25.82
2018-07-02T07:35:47.164Z,25.85
2018-07-02T07:36:47.095Z,25.86
2018-07-02T07:37:47.071Z,25.86
2018-07-02T07:38:46.035Z,25.89
2018-07-02T07:39:47.045Z,25.86
2018-07-02T07:40:47.159Z,25.81
2018-07-02T07:41:47.022Z,25.86
2018-07-02T07:42:47.177Z,25.83
2018-07-02T07:43:46.996Z,25.85
2018-07-02T07:44:47.044Z,25.85
2018-07-02T07:45:45.980Z,25.89
2018-07-02T07:46:47.076Z,25.81
2018-07-02T07:47:46.980Z,25.86
2018-07-02T07:48:46.977Z,25.86
2018-07-02T07:49:46.940Z,25.98
2018-07-02T07:50:46.937Z,25.93
2018-07-02T07:51:46.924Z,25.83
2018-07-02T07:52:47.919Z,26.00
2018-07-02T07:53:47.056Z,25.96
2018-07-02T07:54:46.860Z,26.00
2018-07-02T07:55:46.862Z,25.89
2018-07-02T07:56:46.893Z,25.98
2018-07-02T07:57:46.873Z,25.89
2018-07-02T07:58:46.830Z,25.83
2018-07-02T07:59:46.825Z,25.81
2018-07-02T08:00:46.906Z,25.86
2018-07-02T08:01:47.434Z,25.79
2018-07-02T08:02:46.956Z,25.82
2018-07-02T08:03:46.773Z,25.91
2018-07-02T08:04:46.845Z,25.83
2018-07-02T08:05:46.778Z,25.82
2018-07-02T08:06:46.899Z,25.82
2018-07-02T08:07:46.746Z,25.86
2018-07-02T08:08:46.848Z,25.83
2018-07-02T08:09:46.796Z,25.81
2018-07-02T08:10:46.724Z,25.85
2018-07-02T08:11:47.079Z,25.83
2018-07-02T08:12:46.814Z,25.78
2018-07-02T08:13:46.958Z,25.86
2018-07-02T08:14:50.269Z,25.83
2018-07-02T08:15:46.769Z,25.81
2018-07-02T08:16:46.766Z,25.89
2018-07-02T08:17:46.748Z,25.82
2018-07-02T08:18:46.715Z,25.78
2018-07-02T08:19:46.618Z,25.71
2018-07-02T08:20:46.709Z,25.75
2018-07-02T08:21:46.601Z,25.78
2018-07-02T08:22:46.584Z,25.75
2018-07-02T08:23:46.733Z,25.71
2018-07-02T08:24:46.571Z,25.71
2018-07-02T08:25:46.565Z,25.74
2018-07-02T08:26:46.565Z,25.74
2018-07-02T08:27:46.526Z,25.72
2018-07-02T08:28:46.670Z,25.74
2018-07-02T08:29:46.523Z,25.74
2018-07-02T08:30:46.839Z,25.63
2018-07-02T08:31:46.498Z,25.64
2018-07-02T08:32:46.621Z,25.67
2018-07-02T08:33:47.759Z,25.59
2018-07-02T08:34:46.640Z,25.59
2018-07-02T08:35:46.459Z,25.59
2018-07-02T08:36:46.434Z,25.59
2018-07-02T08:37:46.542Z,25.60
2018-07-02T08:38:46.445Z,25.56
2018-07-02T08:39:46.429Z,25.59
2018-07-02T08:40:46.456Z,25.61
2018-07-02T08:41:46.877Z,25.64
2018-07-02T08:42:46.385Z,25.59
2018-07-02T08:43:46.357Z,25.57
2018-07-02T08:44:46.510Z,25.57
2018-07-02T08:45:46.413Z,25.63
2018-07-02T08:46:46.602Z,25.59
2018-07-02T08:47:46.343Z,25.60
2018-07-02T08:48:46.329Z,25.60
2018-07-02T08:49:46.310Z,25.59
2018-07-02T08:50:46.334Z,25.59
2018-07-02T08:51:46.311Z,25.60
2018-07-02T08:52:46.316Z,25.61
2018-07-02T08:53:46.251Z,25.63
2018-07-02T08:54:46.242Z,25.57
2018-07-02T08:55:46.249Z,25.63
2018-07-02T08:56:46.294Z,25.61
2018-07-02T08:57:46.226Z,25.74
2018-07-02T08:58:46.201Z,25.59
2018-07-02T08:59:46.403Z,25.67
2018-07-02T09:00:46.192Z,25.57
2018-07-02T09:01:46.180Z,25.60
2018-07-02T09:02:46.172Z,25.61
2018-07-02T09:03:46.183Z,25.60
2018-07-02T09:04:46.152Z,25.59
2018-07-02T09:05:46.129Z,25.54
2018-07-02T09:06:46.149Z,25.63
2018-07-02T09:07:46.179Z,25.60
2018-07-02T09:08:46.102Z,25.71
2018-07-02T09:09:46.102Z,25.69
2018-07-02T09:10:46.807Z,25.69
2018-07-02T09:11:46.211Z,25.72
2018-07-02T09:12:47.402Z,25.78
2018-07-02T09:13:46.277Z,25.79
2018-07-02T09:14:46.072Z,25.71
2018-07-02T09:15:47.108Z,25.75
2018-07-02T09:16:46.047Z,25.69
2018-07-02T09:17:46.121Z,25.76
2018-07-02T09:18:46.015Z,25.74
2018-07-02T09:19:45.986Z,25.82
2018-07-02T09:20:47.682Z,25.86
2018-07-02T09:21:45.966Z,25.90
2018-07-02T09:22:45.993Z,25.85
2018-07-02T09:23:45.999Z,25.86
2018-07-02T09:24:46.092Z,25.90
2018-07-02T09:25:45.940Z,25.81
2018-07-02T09:26:45.923Z,25.94
2018-07-02T09:27:46.078Z,25.82
2018-07-02T09:28:45.906Z,25.93
2018-07-02T09:29:45.925Z,25.97
2018-07-02T09:30:45.895Z,25.83
2018-07-02T09:31:45.870Z,25.94
2018-07-02T09:32:45.870Z,26.01
2018-07-02T09:33:46.107Z,25.98
2018-07-02T09:34:45.863Z,25.94
2018-07-02T09:35:45.842Z,25.98
2018-07-02T09:36:45.937Z,25.98
2018-07-02T09:37:45.840Z,25.94
2018-07-02T09:38:45.911Z,25.90
2018-07-02T09:39:45.796Z,25.96
2018-07-02T09:40:46.005Z,25.96
2018-07-02T09:41:45.757Z,25.97
2018-07-02T09:42:45.808Z,25.96
2018-07-02T09:43:45.896Z,25.97
2018-07-02T09:44:45.856Z,25.94
2018-07-02T09:45:45.723Z,26.00
2018-07-02T09:46:45.823Z,26.03
2018-07-02T09:47:45.806Z,26.00
2018-07-02T09:48:45.839Z,26.08
2018-07-02T09:49:45.716Z,26.00
2018-07-02T09:50:46.038Z,26.06
2018-07-02T09:51:46.835Z,25.98
2018-07-02T09:52:48.838Z,26.09
2018-07-02T09:53:45.752Z,25.96
2018-07-02T09:54:45.636Z,26.00
2018-07-02T09:55:45.642Z,26.08
2018-07-02T09:56:45.622Z,26.06
2018-07-02T09:57:45.671Z,26.11
2018-07-02T09:58:45.620Z,26.09
2018-07-02T09:59:45.596Z,26.09
2018-07-02T10:00:45.570Z,26.00
2018-07-02T10:01:45.568Z,26.06
2018-07-02T10:02:45.553Z,26.11
2018-07-02T10:03:45.556Z,26.12
2018-07-02T10:04:45.551Z,26.13
2018-07-02T10:05:45.843Z,26.17
2018-07-02T10:06:45.508Z,26.16
2018-07-02T10:07:45.533Z,26.20
2018-07-02T10:08:47.137Z,26.20
2018-07-02T10:09:44.598Z,26.21
2018-07-02T10:10:45.489Z,26.23
2018-07-02T10:11:45.469Z,26.21
2018-07-02T10:12:45.574Z,26.13
2018-07-02T10:13:45.583Z,26.17
2018-07-02T10:14:45.441Z,26.17
2018-07-02T10:15:45.555Z,26.29
2018-07-02T10:16:45.595Z,26.32
2018-07-02T10:17:45.421Z,26.29
2018-07-02T10:18:45.411Z,26.34
2018-07-02T10:19:45.391Z,26.17
2018-07-02T10:20:45.562Z,26.20
2018-07-02T10:21:45.398Z,26.31
2018-07-02T10:22:45.366Z,26.31
2018-07-02T10:23:45.516Z,26.29
2018-07-02T10:24:45.339Z,26.31
2018-07-02T10:25:45.474Z,26.29
2018-07-02T10:26:45.477Z,26.28
2018-07-02T10:27:45.294Z,26.21
2018-07-02T10:28:45.301Z,26.32
2018-07-02T10:29:45.298Z,26.36
2018-07-02T10:30:45.313Z,26.32
2018-07-02T10:31:45.321Z,26.31
2018-07-02T10:32:45.369Z,26.27
2018-07-02T10:33:45.243Z,26.32
2018-07-02T10:34:45.308Z,26.29
2018-07-02T10:35:45.349Z,26.35
2018-07-02T10:36:45.225Z,26.35
2018-07-02T10:37:45.248Z,26.39
2018-07-02T10:38:45.397Z,26.36
2018-07-02T10:39:45.223Z,26.42
2018-07-02T10:40:45.177Z,26.38
2018-07-02T10:41:45.360Z,26.41
2018-07-02T10:42:45.138Z,26.39
2018-07-02T10:43:45.400Z,26.31
2018-07-02T10:44:48.012Z,26.44
2018-07-02T10:45:45.115Z,26.49
2018-07-02T10:46:45.146Z,26.46
2018-07-02T10:47:45.087Z,26.38
2018-07-02T10:48:45.104Z,26.35
2018-07-02T10:49:45.074Z,26.42
2018-07-02T10:50:45.064Z,26.44
2018-07-02T10:51:45.069Z,26.42
2018-07-02T10:52:45.085Z,26.42
2018-07-02T10:53:45.043Z,26.47
2018-07-02T10:54:45.516Z,26.46
2018-07-02T10:55:45.544Z,26.38
2018-07-02T10:56:44.994Z,26.46
2018-07-02T10:57:45.173Z,26.47
2018-07-02T10:58:44.979Z,26.42
2018-07-02T10:59:43.982Z,26.46
2018-07-02T11:00:47.757Z,26.44
2018-07-02T11:01:44.950Z,26.41
2018-07-02T11:02:44.998Z,26.49
2018-07-02T11:03:45.047Z,26.50
2018-07-02T11:04:44.923Z,26.56
2018-07-02T11:05:45.041Z,26.44
2018-07-02T11:06:45.049Z,26.53
2018-07-02T11:07:45.069Z,26.38
2018-07-02T11:08:44.888Z,26.36
2018-07-02T11:09:44.894Z,26.54
2018-07-02T11:10:44.897Z,26.51
2018-07-02T11:11:44.848Z,26.50
2018-07-02T11:12:44.955Z,26.50
2018-07-02T11:13:44.842Z,26.53
2018-07-02T11:14:44.816Z,26.50
2018-07-02T11:15:44.804Z,26.47
2018-07-02T11:16:44.800Z,26.54
2018-07-02T11:17:44.792Z,26.50
2018-07-02T11:18:44.890Z,26.46
2018-07-02T11:19:44.801Z,26.51
2018-07-02T11:20:44.763Z,26.57
2018-07-02T11:21:44.891Z,26.53
2018-07-02T11:22:44.740Z,26.49
2018-07-02T11:23:44.928Z,26.41
2018-07-02T11:24:44.720Z,26.51
2018-07-02T11:25:44.707Z,26.51
2018-07-02T11:26:44.804Z,26.51
2018-07-02T11:27:44.855Z,26.49
2018-07-02T11:28:44.701Z,26.61
2018-07-02T11:29:44.667Z,26.65
2018-07-02T11:30:44.795Z,26.57
2018-07-02T11:31:44.638Z,26.64
2018-07-02T11:32:44.689Z,26.61
2018-07-02T11:33:44.637Z,26.66
2018-07-02T11:34:44.734Z,26.69
2018-07-02T11:35:44.743Z,26.69
2018-07-02T11:36:44.581Z,26.71
2018-07-02T11:37:44.633Z,26.69
2018-07-02T11:38:44.586Z,26.68
2018-07-02T11:39:44.685Z,26.73
2018-07-02T11:40:53.066Z,26.76
2018-07-02T11:41:44.568Z,26.75
2018-07-02T11:42:44.539Z,26.81
2018-07-02T11:43:46.049Z,26.86
2018-07-02T11:44:44.532Z,26.79
2018-07-02T11:45:44.665Z,26.86
2018-07-02T11:46:44.557Z,26.91
2018-07-02T11:47:44.610Z,26.91
2018-07-02T11:48:44.591Z,26.91
2018-07-02T11:49:44.689Z,26.94
2018-07-02T11:50:44.458Z,27.01
2018-07-02T11:51:44.456Z,26.90
2018-07-02T11:52:45.702Z,27.03
2018-07-02T11:53:44.408Z,27.01
2018-07-02T11:54:44.416Z,27.06
2018-07-02T11:55:44.927Z,27.03
2018-07-02T11:56:44.378Z,27.06
2018-07-02T11:57:44.673Z,27.06
2018-07-02T11:58:44.349Z,27.06
2018-07-02T11:59:44.514Z,27.08
2018-07-02T12:00:44.480Z,27.12
2018-07-02T12:01:44.479Z,27.11
2018-07-02T12:02:44.836Z,27.12
2018-07-02T12:03:44.434Z,27.15
2018-07-02T12:04:44.334Z,27.13
2018-07-02T12:05:45.299Z,27.09
2018-07-02T12:06:44.274Z,27.11
2018-07-02T12:07:44.441Z,27.27
2018-07-02T12:08:44.280Z,27.23
2018-07-02T12:09:44.496Z,27.24
2018-07-02T12:10:44.299Z,27.24
2018-07-02T12:11:44.409Z,27.21
2018-07-02T12:12:44.246Z,27.24
2018-07-02T12:13:44.325Z,27.27
2018-07-02T12:14:44.211Z,27.30
2018-07-02T12:15:44.411Z,27.30
2018-07-02T12:16:44.673Z,27.34
2018-07-02T12:17:44.165Z,27.31
2018-07-02T12:18:44.258Z,27.31
2018-07-02T12:19:44.292Z,27.39
2018-07-02T12:20:44.141Z,27.34
2018-07-02T12:21:44.283Z,27.43
2018-07-02T12:22:44.330Z,27.38
2018-07-02T12:23:44.107Z,27.38
2018-07-02T12:24:44.122Z,27.48
2018-07-02T12:25:44.084Z,27.42
2018-07-02T12:26:44.110Z,27.45
2018-07-02T12:28:55.120Z,27.48
2018-07-02T12:29:55.028Z,27.53
2018-07-02T12:30:56.113Z,27.55
2018-07-02T12:31:55.962Z,27.49
2018-07-02T12:32:55.812Z,27.53
2018-07-02T12:33:55.985Z,27.55
2018-07-02T12:34:55.789Z,27.59
2018-07-02T12:35:55.883Z,27.65
2018-07-02T12:36:55.915Z,27.55
2018-07-02T12:37:55.779Z,27.63
2018-07-02T12:38:55.896Z,27.58
2018-07-02T12:39:56.476Z,27.62
2018-07-02T12:40:55.824Z,27.63
2018-07-02T12:41:55.857Z,27.71
2018-07-02T12:42:55.725Z,27.68
2018-07-02T12:43:55.809Z,27.68
2018-07-02T12:44:54.869Z,27.69
2018-07-02T12:45:59.339Z,27.69
2018-07-02T12:46:55.972Z,27.63
2018-07-02T12:47:55.797Z,27.59
2018-07-02T12:49:01.725Z,27.62
2018-07-02T12:49:55.744Z,27.61
2018-07-02T12:50:55.620Z,27.59
2018-07-02T12:51:55.622Z,27.71
2018-07-02T12:52:55.741Z,27.62
2018-07-02T12:53:55.731Z,27.62
2018-07-02T12:54:55.764Z,27.65
2018-07-02T12:55:55.567Z,27.77
2018-07-02T12:56:55.570Z,27.71